Time;durP1;ratioP1;P1;durP2;ratioP2;P2;SDS_P1;SDS_P2;PMS_P1;PMS_P2;Temp;Humidity;BMP_temperature;BMP_pressure;BME280_temperature;BME280_humidity;BME280_pressure;Samples;Min_cycle;Max_cycle;Signal;HPM_P1;HPM_P2
2022/07/06 00:01:40;;;;;;;3.15;2.60;;;16.20;99.90;;;;;;5013829;28;20499;-83
2022/07/06 00:04:06;;;;;;;5.00;2.47;;;16.20;99.90;;;;;;5009990;28;20678;-82
2022/07/06 00:06:32;;;;;;;11.40;2.58;;;16.20;99.90;;;;;;4994925;28;20029;-83
2022/07/06 00:08:58;;;;;;;7.18;2.70;;;16.10;99.90;;;;;;5005500;28;20033;-83
2022/07/06 00:11:24;;;;;;;4.07;2.33;;;16.10;99.90;;;;;;5013734;28;20478;-83
2022/07/06 00:13:50;;;;;;;2.83;2.55;;;15.90;99.90;;;;;;5013464;28;20026;-83
2022/07/06 00:16:16;;;;;;;3.92;2.58;;;15.80;99.90;;;;;;5012362;28;20064;-83
2022/07/06 00:18:42;;;;;;;6.40;2.85;;;15.80;99.90;;;;;;5013072;28;20030;-81
2022/07/06 00:21:08;;;;;;;7.18;3.40;;;15.80;99.90;;;;;;5019641;28;20179;-82
2022/07/06 00:23:34;;;;;;;5.82;2.45;;;15.70;99.90;;;;;;5013178;28;20037;-83
2022/07/06 00:25:59;;;;;;;14.60;3.38;;;15.70;99.90;;;;;;5019903;28;20465;-83
2022/07/06 00:28:26;;;;;;;7.30;2.88;;;15.60;99.90;;;;;;5013115;28;20481;-83
2022/07/06 00:30:52;;;;;;;5.05;2.60;;;15.50;99.90;;;;;;5013213;28;20072;-81
2022/07/06 00:33:18;;;;;;;5.75;2.80;;;15.40;99.90;;;;;;5013261;28;20026;-83
2022/07/06 00:35:44;;;;;;;4.88;3.05;;;15.40;99.90;;;;;;5013555;28;20029;-81
2022/07/06 00:38:09;;;;;;;7.18;2.90;;;15.30;99.90;;;;;;5012966;28;20037;-81
2022/07/06 00:40:35;;;;;;;6.18;3.05;;;15.30;99.90;;;;;;5011982;28;20026;-84
2022/07/06 00:43:01;;;;;;;4.00;2.90;;;15.30;99.90;;;;;;5013152;28;20052;-82
2022/07/06 00:45:27;;;;;;;5.53;3.05;;;15.20;99.90;;;;;;5011589;28;20072;-81
2022/07/06 00:47:52;;;;;;;13.88;3.75;;;15.20;99.90;;;;;;5010908;28;20045;-82
2022/07/06 00:50:21;;;;;;;8.80;3.58;;;15.20;99.90;;;;;;5012977;28;20080;-81
2022/07/06 00:52:55;;;;;;;10.60;3.03;;;15.00;99.90;;;;;;5013194;28;20416;-83
2022/07/06 00:55:25;;;;;;;10.35;3.13;;;15.00;99.90;;;;;;5002416;28;20065;-83
2022/07/06 00:57:51;;;;;;;10.98;3.28;;;15.00;99.90;;;;;;5012597;28;20025;-82
2022/07/06 01:00:20;;;;;;;6.18;2.95;;;15.00;99.90;;;;;;5011462;28;20084;-84
2022/07/06 01:02:46;;;;;;;10.20;3.50;;;14.90;99.90;;;;;;5012669;28;20026;-83
2022/07/06 01:05:13;;;;;;;15.40;3.38;;;14.80;99.90;;;;;;5012558;28;20030;-82
2022/07/06 01:07:41;;;;;;;20.60;3.50;;;14.80;99.90;;;;;;5012952;28;20060;-81
2022/07/06 01:10:08;;;;;;;18.98;5.38;;;14.70;99.90;;;;;;5010627;28;20080;-83
2022/07/06 01:12:38;;;;;;;12.20;2.97;;;14.70;99.90;;;;;;5012857;28;20034;-83
2022/07/06 01:15:06;;;;;;;9.95;3.00;;;14.70;99.90;;;;;;5010665;28;20021;-83
2022/07/06 01:17:33;;;;;;;7.80;3.38;;;14.60;99.90;;;;;;5012749;28;20393;-83
2022/07/06 01:20:07;;;;;;;9.45;3.30;;;14.60;99.90;;;;;;5012122;28;20021;-83
2022/07/06 01:22:33;;;;;;;10.00;2.97;;;14.50;99.90;;;;;;4992974;28;20030;-81
2022/07/06 01:24:58;;;;;;;15.55;3.83;;;14.50;99.90;;;;;;5009496;28;20026;-83
2022/07/06 01:27:24;;;;;;;7.00;2.97;;;14.40;99.90;;;;;;5007839;28;20038;-83
2022/07/06 01:29:50;;;;;;;13.20;3.47;;;14.40;99.90;;;;;;5007833;28;20373;-83
2022/07/06 01:32:15;;;;;;;13.63;3.67;;;14.30;99.90;;;;;;5012150;28;20022;-82
2022/07/06 01:34:41;;;;;;;14.57;3.50;;;14.30;99.90;;;;;;5010234;28;20084;-83
2022/07/06 01:37:07;;;;;;;21.08;4.18;;;14.30;99.90;;;;;;5012371;28;20025;-81
2022/07/06 01:39:32;;;;;;;4.22;3.47;;;14.20;99.90;;;;;;5011687;28;20389;-82
2022/07/06 01:41:58;;;;;;;30.58;3.83;;;14.20;99.90;;;;;;5007578;28;20088;-82
2022/07/06 01:44:24;;;;;;;13.55;3.25;;;14.20;99.90;;;;;;5003475;28;20057;-83
2022/07/06 01:46:49;;;;;;;11.40;5.38;;;14.20;99.90;;;;;;5011943;28;20053;-83
2022/07/06 01:49:15;;;;;;;8.15;4.05;;;14.10;99.90;;;;;;5010048;28;20061;-82
2022/07/06 01:51:41;;;;;;;5.30;3.35;;;14.10;99.90;;;;;;5011900;28;20697;-83
2022/07/06 01:54:06;;;;;;;8.75;3.13;;;14.00;99.90;;;;;;5011471;28;20108;-82
2022/07/06 01:56:32;;;;;;;17.88;3.15;;;14.10;99.90;;;;;;5010408;28;20381;-81
2022/07/06 01:58:58;;;;;;;11.07;3.58;;;14.00;99.90;;;;;;5011290;28;20053;-83
2022/07/06 02:01:23;;;;;;;11.77;3.20;;;14.00;99.90;;;;;;5011759;28;20370;-80
2022/07/06 02:03:49;;;;;;;14.38;4.85;;;13.90;99.90;;;;;;5010949;28;20022;-81
2022/07/06 02:06:15;;;;;;;10.93;3.55;;;13.90;99.90;;;;;;5010576;28;20120;-83
2022/07/06 02:08:41;;;;;;;8.93;4.82;;;13.90;99.90;;;;;;5011121;28;20424;-83
2022/07/06 02:11:09;;;;;;;7.82;3.35;;;13.90;99.90;;;;;;5011542;28;20056;-82
2022/07/06 02:13:35;;;;;;;8.98;3.80;;;13.80;99.90;;;;;;5010447;28;20029;-83
2022/07/06 02:16:02;;;;;;;4.18;3.53;;;13.80;99.90;;;;;;5011234;28;20030;-82
2022/07/06 02:18:27;;;;;;;16.75;3.53;;;13.80;99.90;;;;;;4993959;28;20053;-81
2022/07/06 02:20:53;;;;;;;11.75;3.50;;;13.80;99.90;;;;;;5011121;28;20056;-81
2022/07/06 02:23:19;;;;;;;9.93;3.58;;;13.80;99.90;;;;;;5009908;28;20537;-81
2022/07/06 02:25:44;;;;;;;9.13;3.58;;;13.80;99.90;;;;;;5010206;28;20022;-82
2022/07/06 02:28:10;;;;;;;8.75;3.45;;;13.70;99.90;;;;;;5012298;28;20021;-83
2022/07/06 02:30:36;;;;;;;6.70;3.22;;;13.70;99.90;;;;;;5010469;28;20029;-80
2022/07/06 02:33:01;;;;;;;13.20;3.90;;;13.70;99.90;;;;;;5011457;28;20037;-82
2022/07/06 02:35:27;;;;;;;9.15;3.50;;;13.80;99.90;;;;;;5010773;28;20038;-81
2022/07/06 02:37:53;;;;;;;9.05;3.97;;;13.80;99.90;;;;;;5011271;28;20026;-83
2022/07/06 02:40:19;;;;;;;9.40;4.82;;;13.80;99.90;;;;;;5010650;28;20397;-82
2022/07/06 02:42:44;;;;;;;6.43;4.10;;;13.80;99.90;;;;;;5011132;28;20396;-82
2022/07/06 02:45:10;;;;;;;9.45;3.80;;;13.70;99.90;;;;;;5009952;28;20033;-82
2022/07/06 02:47:37;;;;;;;5.80;3.53;;;13.70;99.90;;;;;;5006924;28;20050;-83
2022/07/06 02:50:04;;;;;;;11.55;3.47;;;13.60;99.90;;;;;;5009518;28;20057;-82
2022/07/06 02:52:29;;;;;;;7.07;3.92;;;13.60;99.90;;;;;;5011062;28;20018;-83
2022/07/06 02:54:55;;;;;;;6.90;3.97;;;13.60;99.90;;;;;;5009197;28;20030;-81
2022/07/06 02:57:21;;;;;;;11.32;3.90;;;13.50;99.90;;;;;;5014393;28;20022;-82
2022/07/06 02:59:49;;;;;;;5.50;3.92;;;13.60;99.90;;;;;;5010216;28;20042;-82
2022/07/06 03:02:16;;;;;;;10.93;4.25;;;13.50;99.90;;;;;;5009381;28;20472;-82
2022/07/06 03:04:41;;;;;;;14.15;3.92;;;13.50;99.90;;;;;;5010669;28;20045;-83
2022/07/06 03:07:07;;;;;;;16.52;3.72;;;13.50;99.90;;;;;;5011157;28;20068;-82
2022/07/06 03:09:33;;;;;;;13.68;3.88;;;13.50;99.90;;;;;;5010462;28;20083;-80
2022/07/06 03:11:59;;;;;;;16.98;3.78;;;13.40;99.90;;;;;;5011204;28;20477;-81
2022/07/06 03:14:25;;;;;;;4.32;3.60;;;13.40;99.90;;;;;;5010220;28;20084;-83
2022/07/06 03:16:51;;;;;;;8.07;3.72;;;13.40;99.90;;;;;;5017098;28;20056;-81
2022/07/06 03:19:17;;;;;;;11.60;4.25;;;13.40;99.90;;;;;;5010486;28;20105;-83
2022/07/06 03:21:42;;;;;;;6.05;3.50;;;13.40;99.90;;;;;;5011484;28;20381;-83
2022/07/06 03:24:08;;;;;;;13.35;4.05;;;13.40;99.90;;;;;;5010214;28;20033;-82
2022/07/06 03:26:34;;;;;;;14.65;3.97;;;13.40;99.90;;;;;;5010519;28;20222;-82
2022/07/06 03:29:00;;;;;;;5.97;4.03;;;13.40;99.90;;;;;;5010324;28;20034;-81
2022/07/06 03:31:25;;;;;;;7.47;3.75;;;13.50;99.90;;;;;;5010515;28;20092;-81
2022/07/06 03:33:52;;;;;;;10.20;3.83;;;13.40;99.90;;;;;;5010860;28;20037;-81
2022/07/06 03:36:18;;;;;;;17.25;4.35;;;13.50;99.90;;;;;;5010690;28;20540;-83
2022/07/06 03:38:43;;;;;;;14.23;3.63;;;13.50;99.90;;;;;;5008604;28;20120;-83
2022/07/06 03:41:09;;;;;;;10.32;4.57;;;13.50;99.90;;;;;;5010245;28;20508;-81
2022/07/06 03:43:35;;;;;;;6.72;3.60;;;13.50;99.90;;;;;;5010328;28;20026;-83
2022/07/06 03:46:01;;;;;;;8.57;4.07;;;13.50;99.90;;;;;;5010378;28;20489;-81
2022/07/06 03:48:27;;;;;;;8.40;4.97;;;13.60;99.90;;;;;;5010186;28;20117;-82
2022/07/06 03:50:52;;;;;;;7.00;4.03;;;13.70;99.90;;;;;;5010218;28;20112;-83
2022/07/06 03:53:18;;;;;;;11.50;3.58;;;13.70;99.90;;;;;;5009586;28;20033;-82
2022/07/06 03:56:27;;;;;;;6.20;3.63;;;13.90;99.90;;;;;;5027798;28;20026;-81
2022/07/06 03:58:30;;;;;;;4.53;3.60;;;13.90;99.90;;;;;;5013997;28;20108;-82
2022/07/06 04:00:55;;;;;;;5.05;3.25;;;14.10;99.90;;;;;;5014137;28;20460;-82
2022/07/06 04:03:21;;;;;;;8.93;3.58;;;14.20;99.90;;;;;;5014421;28;20471;-82
2022/07/06 04:05:47;;;;;;;15.57;4.18;;;14.30;99.90;;;;;;5015127;28;20093;-83
2022/07/06 04:08:12;;;;;;;6.70;2.83;;;14.30;99.90;;;;;;5014779;28;20495;-80
2022/07/06 04:10:38;;;;;;;6.45;3.58;;;14.60;99.90;;;;;;5036763;28;20030;-80
2022/07/06 04:13:04;;;;;;;9.70;3.42;;;14.70;99.90;;;;;;5035031;28;20026;-82
2022/07/06 04:15:29;;;;;;;5.97;3.22;;;14.80;99.90;;;;;;5031157;28;20010;-81
2022/07/06 04:17:55;;;;;;;7.07;3.67;;;14.80;99.90;;;;;;5027318;28;20073;-82
2022/07/06 04:20:22;;;;;;;7.18;3.40;;;14.80;99.90;;;;;;5016476;28;20026;-82
2022/07/06 04:22:48;;;;;;;11.85;3.65;;;14.90;99.90;;;;;;5014225;28;20121;-81
2022/07/06 04:25:14;;;;;;;6.72;3.30;;;15.00;99.90;;;;;;5014595;28;20040;-81
2022/07/06 04:27:40;;;;;;;11.85;3.10;;;15.00;99.90;;;;;;5013469;28;20246;-82
2022/07/06 04:30:07;;;;;;;6.30;3.80;;;15.00;99.90;;;;;;5012009;28;20037;-81
2022/07/06 04:32:33;;;;;;;8.18;3.38;;;15.00;99.90;;;;;;5013342;28;20026;-82
2022/07/06 04:34:58;;;;;;;5.97;3.40;;;15.10;99.90;;;;;;5013117;28;20041;-81
2022/07/06 04:37:24;;;;;;;7.72;3.20;;;15.10;99.90;;;;;;5011984;28;20485;-84
2022/07/06 04:39:50;;;;;;;16.52;3.85;;;15.30;99.90;;;;;;5012541;28;20025;-83
2022/07/06 04:42:16;;;;;;;6.47;3.90;;;15.60;99.90;;;;;;5013002;28;20038;-84
2022/07/06 04:44:41;;;;;;;8.05;3.25;;;15.60;99.90;;;;;;5012813;28;20022;-82
2022/07/06 04:47:07;;;;;;;7.22;3.60;;;15.80;99.90;;;;;;5013013;28;20049;-80
2022/07/06 04:49:33;;;;;;;6.30;3.80;;;15.80;99.90;;;;;;5012705;28;20026;-81
2022/07/06 04:51:58;;;;;;;10.68;2.60;;;16.00;99.90;;;;;;5012394;28;20053;-81
2022/07/06 04:54:24;;;;;;;3.58;2.28;;;16.20;99.90;;;;;;5011288;28;20524;-80
2022/07/06 04:56:50;;;;;;;3.33;2.25;;;16.40;99.90;;;;;;5012731;28;20022;-82
2022/07/06 04:59:16;;;;;;;2.50;2.30;;;16.60;99.90;;;;;;5011344;28;20058;-84
2022/07/06 05:01:41;;;;;;;4.28;2.20;;;16.90;99.90;;;;;;5012656;28;20477;-82
2022/07/06 05:04:08;;;;;;;2.38;2.17;;;17.10;99.90;;;;;;5012628;28;20076;-81
2022/07/06 05:06:34;;;;;;;2.88;2.20;;;17.30;99.90;;;;;;5012534;28;20477;-82
2022/07/06 05:08:59;;;;;;;3.45;2.58;;;17.40;99.90;;;;;;5012766;28;20033;-82
2022/07/06 05:11:26;;;;;;;6.18;2.20;;;17.60;99.90;;;;;;5011101;28;20051;-82
2022/07/06 05:13:52;;;;;;;9.80;2.97;;;17.70;99.90;;;;;;5011074;28;20362;-80
2022/07/06 05:16:18;;;;;;;6.28;2.22;;;17.70;99.90;;;;;;5012453;28;20037;-83
2022/07/06 05:18:43;;;;;;;2.75;2.55;;;17.70;99.90;;;;;;5012694;28;20018;-82
2022/07/06 05:21:09;;;;;;;3.22;2.13;;;17.80;99.90;;;;;;5012774;28;20392;-81
2022/07/06 05:23:35;;;;;;;9.02;2.13;;;17.80;99.90;;;;;;5012736;28;20033;-80
2022/07/06 05:26:00;;;;;;;9.68;2.55;;;17.90;99.90;;;;;;5010151;28;20049;-80
2022/07/06 05:28:26;;;;;;;2.50;2.30;;;18.00;99.90;;;;;;5012427;28;20503;-82
2022/07/06 05:30:52;;;;;;;4.82;2.55;;;18.00;99.90;;;;;;5011747;28;20026;-83
2022/07/06 05:33:18;;;;;;;3.90;2.30;;;18.10;99.90;;;;;;5012380;28;20470;-80
2022/07/06 05:35:43;;;;;;;3.40;2.03;;;18.20;99.90;;;;;;5012041;28;20042;-83
2022/07/06 05:38:10;;;;;;;4.53;2.35;;;18.40;99.90;;;;;;5012107;28;20037;-80
2022/07/06 05:40:36;;;;;;;5.75;2.22;;;18.40;99.90;;;;;;5010490;28;20037;-82
2022/07/06 05:43:02;;;;;;;4.03;1.90;;;18.50;99.90;;;;;;5010467;28;20396;-83
2022/07/06 05:45:28;;;;;;;8.80;2.08;;;18.60;99.90;;;;;;5012591;28;20034;-80
2022/07/06 05:50:37;;;;;;;3.20;1.98;;;18.80;99.90;;;;;;5009857;28;20029;-81
2022/07/06 05:53:05;;;;;;;8.38;2.38;;;18.90;99.90;;;;;;5011530;28;20042;-83
2022/07/06 05:55:31;;;;;;;2.97;2.00;;;19.00;99.90;;;;;;5011222;28;20068;-81
2022/07/06 05:57:57;;;;;;;12.15;2.45;;;19.10;99.90;;;;;;5011682;28;20068;-82
2022/07/06 06:00:24;;;;;;;2.80;1.95;;;19.10;99.90;;;;;;5012545;28;20022;-81
2022/07/06 06:02:50;;;;;;;2.65;2.10;;;19.20;99.90;;;;;;5011777;28;20503;-80
2022/07/06 06:05:17;;;;;;;3.38;1.77;;;19.20;99.90;;;;;;5011781;28;20022;-83
2022/07/06 06:07:43;;;;;;;2.75;1.90;;;19.40;99.90;;;;;;5011694;28;20021;-83
2022/07/06 06:10:11;;;;;;;4.80;2.05;;;19.50;99.90;;;;;;5011826;28;20388;-82
2022/07/06 06:12:38;;;;;;;4.53;1.90;;;19.60;99.90;;;;;;5011259;28;20032;-83
2022/07/06 06:15:04;;;;;;;3.17;2.30;;;19.70;99.90;;;;;;5011699;28;20025;-82
2022/07/06 06:17:30;;;;;;;2.58;1.67;;;19.80;99.90;;;;;;5010334;28;20030;-82
2022/07/06 06:19:57;;;;;;;2.15;1.95;;;19.80;99.90;;;;;;5008618;28;20034;-83
2022/07/06 06:22:23;;;;;;;9.18;2.10;;;19.90;99.90;;;;;;5010578;28;20033;-83
2022/07/06 06:24:49;;;;;;;3.58;2.38;;;19.90;99.90;;;;;;5011350;28;20022;-83
2022/07/06 06:27:15;;;;;;;6.95;1.88;;;19.90;99.90;;;;;;5009306;28;20026;-83
2022/07/06 06:29:41;;;;;;;5.65;1.85;;;19.90;99.90;;;;;;5011582;28;20033;-81
2022/07/06 06:32:07;;;;;;;3.28;2.13;;;20.00;99.90;;;;;;4991627;28;20026;-84
2022/07/06 06:34:33;;;;;;;3.95;1.90;;;20.30;99.90;;;;;;4991427;28;20030;-82
2022/07/06 06:36:59;;;;;;;5.97;1.95;;;20.40;99.90;;;;;;4991712;28;20030;-83
2022/07/06 06:39:25;;;;;;;6.10;1.70;;;20.30;99.90;;;;;;4991461;28;20029;-81
2022/07/06 06:41:51;;;;;;;4.93;2.22;;;20.30;99.20;;;;;;4999795;28;20026;-82
2022/07/06 06:44:17;;;;;;;5.75;1.85;;;20.40;99.50;;;;;;5010982;28;20492;-82
2022/07/06 06:46:43;;;;;;;4.15;1.67;;;20.60;98.10;;;;;;5010569;28;20046;-82
2022/07/06 06:49:10;;;;;;;4.38;1.85;;;20.60;98.70;;;;;;5009663;28;20366;-82
2022/07/06 06:51:39;;;;;;;6.88;1.80;;;20.60;97.40;;;;;;5009638;28;20026;-81
2022/07/06 06:54:06;;;;;;;3.20;1.88;;;20.60;97.80;;;;;;5011155;28;20034;-80
2022/07/06 06:56:33;;;;;;;4.05;1.90;;;20.80;99.00;;;;;;5011068;28;20532;-82
2022/07/06 06:58:59;;;;;;;3.53;1.80;;;20.80;99.10;;;;;;5009623;28;20081;-81
2022/07/06 07:01:25;;;;;;;6.50;1.80;;;20.80;97.20;;;;;;5009460;28;20026;-83
2022/07/06 07:03:52;;;;;;;2.05;1.45;;;20.90;99.00;;;;;;5010981;28;20021;-82
2022/07/06 07:06:18;;;;;;;9.13;1.95;;;21.20;99.70;;;;;;5009120;28;20517;-81
2022/07/06 07:08:51;;;;;;;4.88;1.98;;;21.30;99.90;;;;;;5009509;28;20406;-80
2022/07/06 07:11:19;;;;;;;3.33;1.77;;;21.20;96.30;;;;;;5009698;28;20030;-84
2022/07/06 07:13:46;;;;;;;3.20;1.45;;;21.20;96.20;;;;;;5009693;28;20030;-82
2022/07/06 07:16:13;;;;;;;7.25;2.13;;;21.30;99.90;;;;;;5010551;28;20022;-81
2022/07/06 07:18:39;;;;;;;4.38;1.77;;;21.40;95.60;;;;;;5012838;28;20026;-80
2022/07/06 07:21:05;;;;;;;3.40;1.92;;;21.20;97.00;;;;;;5012984;28;20037;-82
2022/07/06 07:23:32;;;;;;;3.70;2.35;;;21.40;96.80;;;;;;5010819;28;20037;-83
2022/07/06 07:25:58;;;;;;;2.13;1.77;;;21.40;95.30;;;;;;5010614;28;20064;-83
2022/07/06 07:28:24;;;;;;;6.90;2.53;;;21.70;95.80;;;;;;5011534;28;20077;-82
2022/07/06 07:30:50;;;;;;;3.30;2.20;;;21.70;96.50;;;;;;5014592;28;20326;-80
2022/07/06 07:33:17;;;;;;;3.17;1.77;;;21.80;95.80;;;;;;5014112;28;20390;-83
2022/07/06 07:35:43;;;;;;;2.55;1.90;;;21.90;96.80;;;;;;5013897;28;20048;-82
2022/07/06 07:38:10;;;;;;;10.27;2.10;;;21.90;96.20;;;;;;5030876;28;20018;-80
2022/07/06 07:40:36;;;;;;;5.35;1.48;;;22.10;95.20;;;;;;5014143;28;20497;-83
2022/07/06 07:43:02;;;;;;;2.70;1.58;;;22.10;97.00;;;;;;5016514;28;20415;-83
2022/07/06 07:45:29;;;;;;;2.97;2.00;;;22.10;94.00;;;;;;5015901;28;20076;-84
2022/07/06 07:47:55;;;;;;;2.10;1.65;;;22.00;93.90;;;;;;5010813;28;20188;-84
2022/07/06 07:50:21;;;;;;;5.55;1.55;;;22.10;94.30;;;;;;5014070;28;20022;-82
2022/07/06 07:52:47;;;;;;;1.85;1.38;;;22.30;95.30;;;;;;5014391;28;20026;-81
2022/07/06 07:55:14;;;;;;;1.77;1.60;;;22.20;92.80;;;;;;5014168;28;20388;-81
2022/07/06 07:57:41;;;;;;;7.57;1.80;;;22.30;95.60;;;;;;5014041;28;20101;-82
2022/07/06 08:00:07;;;;;;;2.75;1.83;;;22.30;94.60;;;;;;5014442;28;20022;-82
2022/07/06 08:02:33;;;;;;;4.95;1.95;;;22.30;92.30;;;;;;5013812;28;20029;-83
2022/07/06 08:04:59;;;;;;;8.07;2.00;;;22.20;92.50;;;;;;5013625;28;20108;-81
2022/07/06 08:07:25;;;;;;;5.18;1.67;;;22.40;94.90;;;;;;5014093;28;20060;-81
2022/07/06 08:09:51;;;;;;;2.65;1.77;;;22.50;93.50;;;;;;5014014;28;20037;-81
2022/07/06 08:12:17;;;;;;;5.85;1.88;;;22.60;94.20;;;;;;5014421;28;20030;-82
2022/07/06 08:14:43;;;;;;;1.65;1.50;;;22.80;93.00;;;;;;4999855;28;20038;-83
2022/07/06 08:17:09;;;;;;;9.95;1.98;;;22.90;93.70;;;;;;4998448;28;20540;-82
2022/07/06 08:19:35;;;;;;;2.15;1.40;;;23.00;93.00;;;;;;5013643;28;20030;-81
2022/07/06 08:22:06;;;;;;;3.67;1.88;;;23.00;91.60;;;;;;5008421;28;20068;-81
2022/07/06 08:24:34;;;;;;;1.48;1.33;;;23.00;94.60;;;;;;5027697;28;20030;-83
2022/07/06 08:27:01;;;;;;;2.55;1.83;;;23.10;91.20;;;;;;5011145;28;20061;-83
2022/07/06 08:29:28;;;;;;;3.25;1.58;;;23.20;93.20;;;;;;5013047;28;20022;-83
2022/07/06 08:31:56;;;;;;;5.57;1.45;;;23.50;93.40;;;;;;5018248;28;20481;-84
2022/07/06 08:34:24;;;;;;;4.10;1.40;;;23.40;91.70;;;;;;5028394;28;20038;-83
2022/07/06 08:36:52;;;;;;;3.70;1.40;;;23.40;91.70;;;;;;5035575;28;20029;-82
2022/07/06 08:39:18;;;;;;;5.18;1.40;;;23.50;94.10;;;;;;5022351;28;20060;-82
2022/07/06 08:41:47;;;;;;;4.35;1.70;;;23.40;91.40;;;;;;5011129;28;20030;-81
2022/07/06 08:44:15;;;;;;;5.63;1.67;;;23.50;92.20;;;;;;5011569;28;20036;-82
2022/07/06 08:46:42;;;;;;;11.38;1.90;;;23.60;91.90;;;;;;5003842;28;20109;-83
2022/07/06 08:49:12;;;;;;;6.60;1.90;;;23.40;91.20;;;;;;5013072;28;20030;-82
2022/07/06 08:51:40;;;;;;;2.65;2.03;;;23.50;91.90;;;;;;5013687;28;20030;-84
2022/07/06 08:54:08;;;;;;;4.65;2.00;;;23.70;91.40;;;;;;5022194;28;20569;-84
2022/07/06 08:56:36;;;;;;;5.65;1.60;;;23.40;91.00;;;;;;5014478;28;20037;-86
2022/07/06 08:59:02;;;;;;;5.47;1.90;;;23.80;91.60;;;;;;5014347;28;20034;-82
2022/07/06 09:01:29;;;;;;;2.85;1.52;;;23.90;92.50;;;;;;5013963;28;20037;-85
2022/07/06 09:03:57;;;;;;;6.38;2.13;;;24.00;91.10;;;;;;5015308;28;20026;-84
2022/07/06 09:06:27;;;;;;;3.78;1.65;;;24.30;91.30;;;;;;5012393;28;20127;-85
2022/07/06 09:08:55;;;;;;;2.72;1.58;;;24.40;91.80;;;;;;5011140;28;20564;-86
2022/07/06 09:11:23;;;;;;;6.40;1.95;;;24.30;91.10;;;;;;5012644;28;20088;-83
2022/07/06 09:13:52;;;;;;;7.30;1.90;;;23.90;90.30;;;;;;5011553;28;20022;-84
2022/07/06 09:16:27;;;;;;;8.30;2.05;;;23.90;91.00;;;;;;5012618;28;20045;-85
2022/07/06 09:19:23;;;;;;;10.18;2.08;;;23.50;91.50;;;;;;5012051;28;20018;-84
2022/07/06 09:21:51;;;;;;;2.72;1.65;;;23.50;91.00;;;;;;5012486;28;20354;-85
2022/07/06 09:24:16;;;;;;;4.88;1.77;;;23.50;92.90;;;;;;5009944;28;20057;-83
2022/07/06 09:26:43;;;;;;;3.67;1.63;;;23.70;93.90;;;;;;5012052;28;20026;-85
2022/07/06 09:29:11;;;;;;;3.97;1.70;;;24.10;92.30;;;;;;5011413;28;20104;-83
2022/07/06 09:31:37;;;;;;;7.70;2.30;;;24.10;90.40;;;;;;5012113;28;20038;-84
2022/07/06 09:34:10;;;;;;;3.33;1.80;;;24.20;90.40;;;;;;5011280;28;20022;-84
2022/07/06 09:36:44;;;;;;;3.67;1.80;;;24.30;88.30;;;;;;5010996;28;20083;-84
2022/07/06 09:39:28;;;;;;;2.70;1.83;;;24.60;88.30;;;;;;5012646;28;20034;-84
2022/07/06 09:41:57;;;;;;;3.30;1.63;;;24.00;88.20;;;;;;5012256;28;20029;-84
2022/07/06 09:44:28;;;;;;;1.75;1.20;;;24.10;91.40;;;;;;5010468;28;20030;-84
2022/07/06 09:47:00;;;;;;;2.10;1.58;;;23.90;88.80;;;;;;5010767;28;20036;-84
2022/07/06 09:49:26;;;;;;;8.48;1.60;;;23.60;88.30;;;;;;5010764;28;20022;-85
2022/07/06 09:51:57;;;;;;;6.05;1.85;;;23.60;90.10;;;;;;5010692;28;20465;-84
2022/07/06 09:54:25;;;;;;;5.45;1.65;;;23.60;87.60;;;;;;5010384;28;20038;-82
2022/07/06 09:56:54;;;;;;;3.05;1.30;;;23.40;86.90;;;;;;5010589;28;20167;-83
2022/07/06 09:59:36;;;;;;;;;;;;;;;;;;;;;
2022/07/06 10:05:29;;;;;;;2.03;1.45;;;24.10;90.20;;;;;;5012095;28;20072;-85
2022/07/06 10:08:00;;;;;;;4.82;2.60;;;24.60;87.10;;;;;;5010221;28;20026;-85
2022/07/06 10:10:30;;;;;;;12.35;1.92;;;24.20;85.60;;;;;;5011644;28;20060;-84
2022/07/06 10:12:57;;;;;;;2.83;1.60;;;23.80;87.70;;;;;;5009717;28;20033;-85
2022/07/06 10:15:28;;;;;;;2.28;1.60;;;23.50;87.60;;;;;;5009870;28;20421;-84
2022/07/06 10:17:56;;;;;;;5.75;1.73;;;23.80;87.60;;;;;;5028196;28;20033;-84
2022/07/06 10:20:23;;;;;;;11.27;1.30;;;23.50;84.50;;;;;;5012839;28;20095;-84
2022/07/06 10:22:51;;;;;;;8.85;1.63;;;23.50;90.10;;;;;;5008599;28;20064;-85
2022/07/06 10:25:18;;;;;;;8.35;1.83;;;23.60;86.40;;;;;;5004049;28;20037;-83
2022/07/06 10:27:48;;;;;;;6.00;1.58;;;23.40;89.10;;;;;;5009127;28;20026;-85
2022/07/06 10:30:16;;;;;;;7.68;1.40;;;23.30;90.00;;;;;;5021812;28;20766;-84
2022/07/06 10:32:44;;;;;;;9.15;1.98;;;23.90;90.10;;;;;;5021782;28;20049;-86
2022/07/06 10:35:11;;;;;;;4.68;1.65;;;24.00;85.00;;;;;;5022446;28;20033;-83
2022/07/06 10:37:37;;;;;;;2.05;1.40;;;24.20;84.20;;;;;;5025710;28;20014;-84
2022/07/06 10:42:51;;;;;;;6.47;1.90;;;25.30;85.90;;;;;;5023147;28;20061;-84
2022/07/06 10:45:29;;;;;;;13.88;2.08;;;25.70;82.20;;;;;;5023009;28;20052;-83
2022/07/06 10:48:15;;;;;;;7.22;1.40;;;25.80;80.40;;;;;;5010170;28;20046;-85
2022/07/06 10:50:50;;;;;;;4.13;1.63;;;26.30;80.00;;;;;;4989690;28;20115;-84
2022/07/06 10:53:22;;;;;;;14.70;1.85;;;26.00;79.40;;;;;;5002002;28;20137;-85
2022/07/06 10:55:51;;;;;;;2.75;1.50;;;25.70;77.80;;;;;;4999637;28;20075;-85
2022/07/06 10:58:52;;;;;;;4.93;1.38;;;25.60;80.80;;;;;;5000260;28;20034;-85
2022/07/06 11:01:20;;;;;;;3.03;1.45;;;25.60;80.80;;;;;;4987580;28;20384;-84
2022/07/06 11:03:50;;;;;;;2.35;1.30;;;26.00;79.60;;;;;;5000787;28;20042;-84
2022/07/06 11:06:19;;;;;;;6.38;1.60;;;25.90;78.70;;;;;;4983809;28;20022;-84
2022/07/06 11:08:57;;;;;;;10.35;1.27;;;25.70;78.00;;;;;;5000452;28;20381;-83
2022/07/06 11:11:24;;;;;;;3.35;1.70;;;24.70;74.70;;;;;;5001711;28;20057;-83
2022/07/06 11:14:04;;;;;;;2.08;1.35;;;25.40;76.10;;;;;;5015921;28;20453;-85
2022/07/06 11:16:36;;;;;;;6.43;1.30;;;25.80;76.40;;;;;;4990047;28;20101;-82
2022/07/06 11:19:09;;;;;;;6.00;1.85;;;26.20;77.60;;;;;;5000809;28;20030;-83
2022/07/06 11:21:58;;;;;;;4.32;1.70;;;25.70;74.00;;;;;;5000546;28;20053;-85
2022/07/06 11:24:30;;;;;;;7.60;2.15;;;26.10;72.10;;;;;;5000996;28;20034;-83
2022/07/06 11:26:59;;;;;;;2.17;1.42;;;26.50;73.40;;;;;;5000275;28;20049;-83
2022/07/06 11:29:26;;;;;;;2.70;1.42;;;26.60;70.40;;;;;;4999318;28;20088;-83
2022/07/06 11:31:54;;;;;;;5.93;1.80;;;26.40;73.60;;;;;;5015144;28;20034;-85
2022/07/06 11:34:25;;;;;;;6.03;1.80;;;26.00;71.70;;;;;;5000825;28;20091;-84
2022/07/06 11:36:59;;;;;;;4.03;1.73;;;25.90;69.80;;;;;;5009492;28;20061;-85
2022/07/06 11:39:28;;;;;;;;;;;25.30;69.90;;;;;;5009814;28;20439;-84
2022/07/06 11:41:58;;;;;;;4.97;1.70;;;25.40;69.30;;;;;;5009740;28;19924;-84
2022/07/06 11:44:24;;;;;;;5.38;1.65;;;25.50;70.60;;;;;;5010871;28;20022;-84
2022/07/06 11:46:50;;;;;;;2.15;1.25;;;25.80;68.70;;;;;;5012365;28;20022;-83
2022/07/06 11:49:17;;;;;;;9.45;2.03;;;26.10;67.20;;;;;;5011310;28;20026;-85
2022/07/06 11:51:45;;;;;;;2.78;1.17;;;26.60;66.70;;;;;;5010411;28;20034;-85
2022/07/06 11:54:15;;;;;;;4.28;1.55;;;26.60;65.40;;;;;;5010567;28;20081;-85
2022/07/06 11:56:48;;;;;;;4.00;1.80;;;26.10;65.40;;;;;;5010793;28;20381;-84
2022/07/06 11:59:16;;;;;;;9.88;3.72;;;26.50;67.80;;;;;;5010660;28;20030;-83
2022/07/06 12:01:44;;;;;;;6.30;1.52;;;26.70;65.40;;;;;;5008613;28;20489;-84
2022/07/06 12:04:10;;;;;;;4.53;1.35;;;26.90;61.20;;;;;;5009292;28;20477;-83
2022/07/06 12:06:36;;;;;;;2.33;1.17;;;26.90;61.40;;;;;;5009128;28;20029;-83
2022/07/06 12:09:04;;;;;;;3.33;1.75;;;27.50;65.00;;;;;;5010178;28;20018;-86
2022/07/06 12:11:34;;;;;;;2.10;1.30;;;27.20;61.70;;;;;;5008918;28;20456;-85
2022/07/06 12:14:02;;;;;;;4.20;1.38;;;27.30;61.50;;;;;;5009222;28;20521;-85
2022/07/06 12:16:36;;;;;;;2.05;1.10;;;26.70;63.20;;;;;;5010659;28;20026;-85
2022/07/06 12:19:04;;;;;;;3.08;1.52;;;27.30;60.60;;;;;;5012441;28;20045;-84
2022/07/06 12:21:30;;;;;;;5.57;1.60;;;27.80;60.40;;;;;;5013485;28;20022;-85
2022/07/06 12:23:57;;;;;;;3.17;1.63;;;27.00;58.30;;;;;;5013779;28;20022;-84
2022/07/06 12:26:25;;;;;;;4.78;1.05;;;27.10;60.10;;;;;;5012522;28;20489;-84
2022/07/06 12:29:15;;;;;;;2.17;1.25;;;26.80;61.40;;;;;;5012095;28;20030;-84
2022/07/06 12:31:50;;;;;;;2.03;1.30;;;27.20;67.20;;;;;;5012239;28;20489;-84
2022/07/06 12:34:27;;;;;;;2.67;1.20;;;27.60;60.20;;;;;;5012355;28;20476;-86
2022/07/06 12:37:06;;;;;;;5.18;1.73;;;28.10;61.30;;;;;;5012257;28;20034;-85
2022/07/06 12:39:40;;;;;;;2.72;0.95;;;28.20;55.10;;;;;;5013646;28;20026;-84
2022/07/06 12:42:06;;;;;;;12.00;1.30;;;27.80;54.40;;;;;;5012168;28;20037;-85
2022/07/06 12:44:32;;;;;;;4.18;1.65;;;27.20;55.10;;;;;;5011890;28;20049;-84
2022/07/06 12:47:09;;;;;;;4.50;1.20;;;26.80;55.20;;;;;;5012978;28;20049;-85
2022/07/06 12:49:38;;;;;;;2.95;1.27;;;27.60;54.30;;;;;;5011724;28;20137;-84
2022/07/06 12:52:06;;;;;;;2.38;1.00;;;28.70;56.70;;;;;;5011716;28;20024;-84
2022/07/06 12:54:42;;;;;;;4.30;1.08;;;30.50;56.40;;;;;;5011884;28;20030;-86
2022/07/06 12:57:26;;;;;;;4.35;0.98;;;30.80;50.90;;;;;;5013063;28;20144;-85